createdAt,value
2018-06-05T00:00:28.108Z,24.70
2018-06-05T00:02:55.806Z,24.80
2018-06-05T00:05:23.514Z,24.60
2018-06-05T00:10:19.034Z,24.10
2018-06-05T00:12:46.756Z,24.00
2018-06-05T00:15:14.461Z,24.50
2018-06-05T00:17:42.164Z,24.40
2018-06-05T00:22:37.560Z,24.40
2018-06-05T00:25:05.281Z,24.50
2018-06-05T00:27:33.551Z,24.20
2018-06-05T00:30:01.285Z,24.20
2018-06-05T00:32:28.989Z,24.30
2018-06-05T00:34:56.697Z,24.20
2018-06-05T00:37:24.384Z,24.60
2018-06-05T00:39:52.065Z,24.70
2018-06-05T00:44:47.515Z,24.60
2018-06-05T00:47:16.627Z,24.30
2018-06-05T00:49:44.315Z,24.80
2018-06-05T00:52:12.015Z,24.80
2018-06-05T00:54:39.717Z,24.30
2018-06-05T00:57:07.443Z,24.20
2018-06-05T00:59:35.141Z,23.90
2018-06-05T01:02:02.892Z,23.80
2018-06-05T01:04:30.608Z,24.20
2018-06-05T01:06:58.301Z,24.30
2018-06-05T01:09:26.003Z,24.20
2018-06-05T01:11:53.697Z,24.00
2018-06-05T01:14:21.445Z,24.00
2018-06-05T01:16:49.185Z,24.10
2018-06-05T01:19:16.905Z,24.30
2018-06-05T01:21:44.638Z,24.10
2018-06-05T01:24:12.461Z,24.10
2018-06-05T01:26:40.168Z,24.20
2018-06-05T01:29:07.923Z,24.30
2018-06-05T01:31:35.670Z,24.30
2018-06-05T01:34:03.529Z,24.60
2018-06-05T01:36:31.252Z,24.50
2018-06-05T01:38:58.979Z,24.60
2018-06-05T01:41:26.685Z,24.80
2018-06-05T01:43:54.395Z,24.80
2018-06-05T01:46:22.093Z,24.60
2018-06-05T01:48:49.778Z,24.20
2018-06-05T01:51:17.494Z,24.20
2018-06-05T01:56:12.929Z,24.10
2018-06-05T01:58:40.791Z,24.00
2018-06-05T02:01:08.509Z,24.10
2018-06-05T02:03:36.206Z,24.00
2018-06-05T02:06:03.991Z,23.90
2018-06-05T02:08:31.692Z,24.00
2018-06-05T02:10:59.387Z,23.90
2018-06-05T02:13:27.127Z,23.90
2018-06-05T02:15:54.888Z,23.70
2018-06-05T02:18:22.639Z,23.90
2018-06-05T02:20:50.665Z,23.60
2018-06-05T02:23:18.375Z,23.60
2018-06-05T02:28:13.864Z,23.70
2018-06-05T02:30:41.593Z,23.90
2018-06-05T02:33:09.301Z,23.90
2018-06-05T02:35:37.006Z,24.10
2018-06-05T02:38:04.740Z,24.30
2018-06-05T02:40:32.491Z,24.40
2018-06-05T02:43:00.190Z,24.40
2018-06-05T02:45:27.922Z,24.60
2018-06-05T02:47:55.655Z,24.60
2018-06-05T02:50:23.348Z,24.10
2018-06-05T02:52:51.057Z,24.40
2018-06-05T02:55:18.775Z,24.40
2018-06-05T02:57:47.213Z,24.40
2018-06-05T03:00:14.979Z,24.20
2018-06-05T03:02:43.044Z,24.20
2018-06-05T03:05:10.872Z,24.30
2018-06-05T03:07:38.632Z,24.20
2018-06-05T03:10:06.367Z,24.20
2018-06-05T03:12:34.139Z,24.00
2018-06-05T03:15:01.883Z,24.00
2018-06-05T03:17:29.724Z,23.90
2018-06-05T03:19:57.954Z,23.70
2018-06-05T03:22:25.664Z,23.80
2018-06-05T03:24:53.382Z,23.80
2018-06-05T03:27:21.107Z,23.80
2018-06-05T03:29:48.866Z,23.70
2018-06-05T03:32:16.630Z,23.70
2018-06-05T03:34:44.349Z,23.50
2018-06-05T03:37:13.072Z,23.50
2018-06-05T03:39:40.807Z,23.50
2018-06-05T03:42:08.619Z,23.30
2018-06-05T03:47:04.109Z,22.90
2018-06-05T03:52:05.325Z,23.20
2018-06-05T03:54:34.151Z,23.20
2018-06-05T03:57:01.866Z,23.10
2018-06-05T03:59:29.654Z,22.90
2018-06-05T04:01:57.398Z,22.80
2018-06-05T04:04:25.373Z,22.90
2018-06-05T04:06:53.067Z,23.00
2018-06-05T04:09:20.798Z,23.20
2018-06-05T04:11:49.241Z,23.10
2018-06-05T04:14:16.998Z,23.30
2018-06-05T04:16:44.772Z,23.40
2018-06-05T04:19:12.492Z,23.70
2018-06-05T04:21:40.210Z,24.00
2018-06-05T04:24:07.998Z,24.20
2018-06-05T04:26:35.705Z,24.00
2018-06-05T04:29:03.395Z,24.10
2018-06-05T04:31:31.090Z,24.20
2018-06-05T04:33:58.852Z,24.20
2018-06-05T04:36:26.531Z,24.20
2018-06-05T04:38:54.256Z,24.20
2018-06-05T04:41:21.991Z,24.30
2018-06-05T04:43:50.599Z,24.30
2018-06-05T04:46:18.445Z,24.30
2018-06-05T04:48:46.239Z,24.30
2018-06-05T04:51:13.942Z,24.60
2018-06-05T04:53:42.010Z,24.50
2018-06-05T05:01:07.274Z,24.20
2018-06-05T05:03:35.245Z,24.10
2018-06-05T05:06:03.734Z,23.90
2018-06-05T05:08:31.848Z,24.00
2018-06-05T05:11:02.139Z,24.00
2018-06-05T05:13:29.965Z,24.00
2018-06-05T05:15:57.711Z,24.00
2018-06-05T05:18:25.442Z,24.10
2018-06-05T05:20:53.173Z,24.00
2018-06-05T05:23:21.040Z,24.00
2018-06-05T05:25:48.788Z,23.90
2018-06-05T05:28:16.562Z,23.70
2018-06-05T05:30:44.281Z,23.80
2018-06-05T05:33:12.043Z,23.90
2018-06-05T05:35:39.851Z,24.10
2018-06-05T05:38:07.616Z,24.00
2018-06-05T05:40:35.377Z,24.10
2018-06-05T05:43:03.537Z,24.00
2018-06-05T05:45:31.299Z,24.00
2018-06-05T05:47:59.422Z,24.00
2018-06-05T05:50:27.649Z,24.00
2018-06-05T05:52:55.419Z,24.10
2018-06-05T05:55:24.210Z,24.00
2018-06-05T05:57:51.924Z,23.90
2018-06-05T06:00:19.657Z,24.00
2018-06-05T06:02:47.435Z,24.20
2018-06-05T06:05:15.199Z,24.30
2018-06-05T06:07:42.953Z,24.10
2018-06-05T06:10:11.028Z,24.20
2018-06-05T06:15:06.573Z,24.20
2018-06-05T06:17:34.320Z,24.20
2018-06-05T06:20:02.119Z,24.40
2018-06-05T06:22:29.931Z,24.30
2018-06-05T06:24:57.729Z,24.60
2018-06-05T06:27:25.483Z,24.80
2018-06-05T06:29:53.247Z,24.90
2018-06-05T06:32:21.027Z,25.00
2018-06-05T06:34:48.800Z,25.00
2018-06-05T06:37:16.541Z,25.20
2018-06-05T06:39:44.298Z,25.30
2018-06-05T06:42:12.107Z,25.30
2018-06-05T06:44:39.856Z,25.50
2018-06-05T06:47:07.708Z,25.50
2018-06-05T06:49:35.511Z,25.50
2018-06-05T06:52:03.302Z,25.20
2018-06-05T06:54:31.129Z,23.00
2018-06-05T06:56:58.838Z,24.70
2018-06-05T07:01:54.431Z,25.20
2018-06-05T07:04:22.178Z,25.20
2018-06-05T07:06:50.328Z,25.20
2018-06-05T07:09:18.073Z,25.00
2018-06-05T07:11:45.870Z,25.10
2018-06-05T07:14:13.673Z,25.20
2018-06-05T07:16:41.777Z,25.20
2018-06-05T07:19:09.610Z,25.40
2018-06-05T07:21:37.433Z,25.30
2018-06-05T07:24:05.328Z,25.30
2018-06-05T07:26:33.145Z,25.00
2018-06-05T07:29:00.891Z,25.10
2018-06-05T07:31:28.718Z,25.30
2018-06-05T07:33:56.514Z,25.40
2018-06-05T07:36:24.505Z,25.20
2018-06-05T07:38:52.305Z,25.40
2018-06-05T07:41:20.048Z,25.10
2018-06-05T07:43:48.117Z,25.00
2018-06-05T07:46:15.888Z,25.20
2018-06-05T07:48:43.781Z,25.50
2018-06-05T07:51:12.444Z,25.20
2018-06-05T07:53:40.381Z,24.90
2018-06-05T07:56:08.171Z,24.90
2018-06-05T07:58:35.962Z,25.00
2018-06-05T08:01:03.879Z,25.30
2018-06-05T08:03:31.938Z,25.10
2018-06-05T08:06:01.346Z,25.20
2018-06-05T08:08:30.099Z,25.40
2018-06-05T08:10:57.920Z,25.40
2018-06-05T08:13:25.946Z,25.20
2018-06-05T08:15:53.754Z,25.20
2018-06-05T08:18:22.241Z,25.40
2018-06-05T08:20:50.092Z,25.40
2018-06-05T08:23:17.897Z,25.40
2018-06-05T08:25:45.660Z,25.60
2018-06-05T08:28:13.415Z,25.40
2018-06-05T08:30:41.229Z,25.60
2018-06-05T08:33:09.071Z,25.90
2018-06-05T08:35:36.893Z,25.90
2018-06-05T08:38:04.738Z,26.10
2018-06-05T08:40:32.604Z,26.20
2018-06-05T08:43:00.442Z,25.70
2018-06-05T08:45:28.236Z,25.90
2018-06-05T08:47:56.048Z,27.50
2018-06-05T08:50:23.922Z,26.20
2018-06-05T08:52:52.081Z,26.30
2018-06-05T08:55:19.872Z,26.30
2018-06-05T08:57:47.860Z,25.90
2018-06-05T09:00:15.960Z,25.50
2018-06-05T09:02:43.780Z,25.50
2018-06-05T09:05:12.361Z,25.50
2018-06-05T09:07:40.217Z,25.30
2018-06-05T09:10:08.070Z,25.40
2018-06-05T09:12:35.832Z,25.40
2018-06-05T09:15:03.795Z,25.60
2018-06-05T09:17:32.110Z,25.60
2018-06-05T09:22:28.246Z,26.00
2018-06-05T09:24:56.307Z,26.00
2018-06-05T09:27:24.150Z,25.90
2018-06-05T09:29:51.936Z,25.60
2018-06-05T09:32:20.307Z,25.20
2018-06-05T09:34:48.102Z,25.50
2018-06-05T09:37:15.854Z,25.70
2018-06-05T09:39:44.039Z,25.60
2018-06-05T09:42:11.878Z,25.70
2018-06-05T09:44:39.944Z,25.90
2018-06-05T09:47:07.961Z,26.00
2018-06-05T09:49:35.986Z,26.20
2018-06-05T09:52:03.783Z,26.40
2018-06-05T09:54:31.553Z,26.60
2018-06-05T09:56:59.367Z,26.80
2018-06-05T10:01:55.904Z,26.70
2018-06-05T10:04:23.658Z,26.80
2018-06-05T10:06:51.503Z,27.00
2018-06-05T10:09:19.225Z,26.80
2018-06-05T10:11:47.047Z,26.90
2018-06-05T10:14:14.918Z,27.00
2018-06-05T10:16:42.724Z,27.10
2018-06-05T10:19:10.559Z,26.80
2018-06-05T10:21:38.421Z,26.80
2018-06-05T10:24:06.284Z,26.70
2018-06-05T10:26:34.080Z,26.50
2018-06-05T10:29:01.859Z,26.50
2018-06-05T10:31:29.667Z,26.50
2018-06-05T10:33:58.393Z,26.30
2018-06-05T10:36:26.515Z,26.90
2018-06-05T10:38:54.289Z,26.90
2018-06-05T10:41:22.408Z,26.90
2018-06-05T10:43:50.844Z,26.60
2018-06-05T10:48:46.509Z,26.80
2018-06-05T10:53:42.810Z,26.70
2018-06-05T10:56:10.887Z,26.90
2018-06-05T10:58:39.345Z,26.90
2018-06-05T11:01:07.809Z,27.00
2018-06-05T11:06:04.059Z,27.60
2018-06-05T11:08:31.881Z,28.10
2018-06-05T11:11:00.506Z,28.40
2018-06-05T11:13:28.554Z,28.50
2018-06-05T11:15:57.319Z,28.60
2018-06-05T11:18:25.238Z,28.30
2018-06-05T11:20:53.126Z,28.40
2018-06-05T11:23:21.253Z,28.40
2018-06-05T11:25:49.342Z,28.50
2018-06-05T11:28:17.840Z,28.60
2018-06-05T11:30:45.703Z,28.60
2018-06-05T11:33:13.506Z,28.70
2018-06-05T11:35:41.332Z,28.70
2018-06-05T11:38:09.116Z,28.70
2018-06-05T11:40:36.943Z,28.90
2018-06-05T11:43:04.713Z,28.90
2018-06-05T11:45:32.433Z,29.10
2018-06-05T11:48:00.088Z,29.10
2018-06-05T11:50:27.796Z,29.40
2018-06-05T11:55:23.187Z,30.10
2018-06-05T11:57:50.901Z,30.30
2018-06-05T12:00:19.599Z,30.70
2018-06-05T12:05:15.036Z,31.50
2018-06-05T12:07:42.733Z,31.90
2018-06-05T12:10:10.413Z,32.20
2018-06-05T12:12:38.086Z,32.50
2018-06-05T12:15:05.767Z,32.50
2018-06-05T12:17:33.471Z,32.10
2018-06-05T12:20:01.158Z,32.40
2018-06-05T12:22:29.516Z,32.80
2018-06-05T12:27:24.948Z,33.20
2018-06-05T12:29:52.627Z,33.60
2018-06-05T12:32:20.341Z,33.30
2018-06-05T12:34:47.997Z,33.70
2018-06-05T12:37:15.739Z,34.10
2018-06-05T12:39:43.364Z,34.30
2018-06-05T12:42:11.081Z,34.60
2018-06-05T12:44:38.800Z,34.90
2018-06-05T12:47:06.493Z,35.10
2018-06-05T12:52:01.897Z,35.50
2018-06-05T12:54:29.631Z,35.00
2018-06-05T12:56:57.331Z,34.90
2018-06-05T12:59:25.051Z,35.00
2018-06-05T13:01:52.747Z,36.20
2018-06-05T13:04:20.451Z,34.70
2018-06-05T13:06:48.135Z,34.70
2018-06-05T13:11:43.536Z,34.90
2018-06-05T13:14:11.203Z,35.50
2018-06-05T13:16:38.882Z,35.80
2018-06-05T13:19:06.542Z,36.20
2018-06-05T13:21:34.226Z,36.50
2018-06-05T13:24:01.944Z,36.70
2018-06-05T13:26:29.628Z,36.70
2018-06-05T13:28:57.290Z,36.70
2018-06-05T13:31:24.959Z,37.00
2018-06-05T13:33:52.617Z,37.10
2018-06-05T13:36:20.270Z,37.50
2018-06-05T13:38:47.958Z,37.40
2018-06-05T13:41:15.959Z,37.80
2018-06-05T13:43:43.649Z,37.80
2018-06-05T13:46:11.314Z,37.20
2018-06-05T13:48:39.009Z,37.10
2018-06-05T13:51:06.704Z,37.00
2018-06-05T13:53:34.366Z,37.30
2018-06-05T13:56:02.030Z,37.60
2018-06-05T13:58:29.715Z,37.90
2018-06-05T14:00:57.366Z,38.10
2018-06-05T14:03:25.082Z,37.80
2018-06-05T14:05:52.757Z,38.10
2018-06-05T14:10:48.145Z,38.60
2018-06-05T14:13:15.858Z,38.90
2018-06-05T14:15:43.548Z,38.70
2018-06-05T14:18:11.245Z,38.90
2018-06-05T14:20:38.909Z,40.10
2018-06-05T14:23:06.616Z,39.10
2018-06-05T14:25:34.294Z,38.90
2018-06-05T14:28:01.971Z,38.80
2018-06-05T14:30:29.700Z,38.90
2018-06-05T14:32:57.385Z,39.60
2018-06-05T14:37:53.112Z,39.10
2018-06-05T14:40:20.797Z,38.40
2018-06-05T14:42:49.142Z,38.40
2018-06-05T14:45:17.024Z,38.60
2018-06-05T14:47:44.533Z,38.80
2018-06-05T14:50:12.209Z,38.70
2018-06-05T14:52:39.972Z,38.90
2018-06-05T14:55:07.639Z,39.40
2018-06-05T14:57:36.027Z,39.60
2018-06-05T15:00:03.956Z,39.60
2018-06-05T15:02:31.622Z,38.90
2018-06-05T15:05:00.143Z,39.50
2018-06-05T15:07:27.978Z,39.80
2018-06-05T15:09:55.664Z,39.90
2018-06-05T15:12:23.373Z,40.10
2018-06-05T15:14:51.078Z,40.50
2018-06-05T15:17:18.806Z,40.80
2018-06-05T15:19:46.539Z,40.40
2018-06-05T15:22:14.187Z,40.60
2018-06-05T15:24:41.958Z,41.00
2018-06-05T15:27:09.622Z,41.20
2018-06-05T15:29:37.265Z,41.30
2018-06-05T15:32:05.335Z,41.40
2018-06-05T15:34:33.028Z,40.80
2018-06-05T15:37:00.722Z,40.60
2018-06-05T15:39:28.387Z,40.60
2018-06-05T15:41:56.063Z,40.40
2018-06-05T15:44:23.737Z,40.20
2018-06-05T15:46:51.461Z,39.80
2018-06-05T15:49:19.178Z,40.40
2018-06-05T15:51:46.839Z,40.50
2018-06-05T15:54:14.519Z,40.70
2018-06-05T15:56:42.524Z,40.50
2018-06-05T15:59:10.198Z,40.10
2018-06-05T16:01:37.895Z,40.30
2018-06-05T16:04:05.659Z,40.80
2018-06-05T16:06:33.348Z,40.80
2018-06-05T16:09:01.097Z,41.20
2018-06-05T16:11:28.817Z,41.40
2018-06-05T16:13:56.783Z,41.70
2018-06-05T16:16:24.458Z,42.00
2018-06-05T16:18:52.175Z,42.00
2018-06-05T16:21:19.899Z,42.10
2018-06-05T16:23:47.591Z,41.70
2018-06-05T16:28:43.049Z,41.70
2018-06-05T16:31:10.831Z,41.70
2018-06-05T16:33:38.698Z,42.10
2018-06-05T16:36:06.673Z,42.10
2018-06-05T16:38:34.432Z,42.30
2018-06-05T16:41:02.103Z,42.20
2018-06-05T16:43:29.846Z,42.20
2018-06-05T16:45:57.641Z,42.30
2018-06-05T16:48:25.351Z,42.20
2018-06-05T16:50:53.077Z,41.90
2018-06-05T16:53:20.737Z,42.00
2018-06-05T16:55:48.476Z,41.90
2018-06-05T16:58:16.200Z,42.10
2018-06-05T17:00:43.856Z,41.90
2018-06-05T17:03:11.674Z,42.10
2018-06-05T17:05:39.359Z,42.20
2018-06-05T17:08:07.087Z,42.10
2018-06-05T17:10:34.806Z,42.10
2018-06-05T17:13:02.491Z,42.40
2018-06-05T17:15:30.159Z,42.30
2018-06-05T17:17:57.928Z,42.30
2018-06-05T17:20:25.648Z,42.30
2018-06-05T17:22:53.302Z,42.20
2018-06-05T17:25:20.938Z,42.20
2018-06-05T17:27:48.591Z,42.10
2018-06-05T17:30:16.427Z,42.10
2018-06-05T17:32:44.182Z,42.00
2018-06-05T17:35:11.849Z,41.70
2018-06-05T17:37:39.654Z,41.50
2018-06-05T17:40:07.425Z,41.20
2018-06-05T17:42:35.107Z,40.90
2018-06-05T17:45:03.731Z,40.60
2018-06-05T17:47:31.564Z,40.00
2018-06-05T17:49:59.214Z,39.70
2018-06-05T17:52:26.867Z,39.30
2018-06-05T17:54:54.507Z,39.10
2018-06-05T17:57:22.319Z,39.00
2018-06-05T17:59:49.971Z,39.00
2018-06-05T18:02:17.637Z,38.60
2018-06-05T18:04:45.315Z,38.60
2018-06-05T18:09:40.687Z,38.60
2018-06-05T18:12:08.494Z,38.60
2018-06-05T18:14:36.219Z,38.20
2018-06-05T18:17:04.078Z,37.70
2018-06-05T18:19:31.742Z,37.80
2018-06-05T18:21:59.450Z,37.80
2018-06-05T18:24:27.102Z,37.70
2018-06-05T18:26:54.834Z,37.40
2018-06-05T18:29:23.270Z,37.30
2018-06-05T18:31:51.357Z,36.90
2018-06-05T18:34:19.456Z,36.80
2018-06-05T18:39:15.675Z,36.30
2018-06-05T18:44:11.724Z,36.00
2018-06-05T18:46:39.621Z,36.10
2018-06-05T18:49:07.530Z,36.00
2018-06-05T18:51:35.227Z,35.60
2018-06-05T18:54:02.920Z,35.50
2018-06-05T18:56:30.602Z,35.10
2018-06-05T18:58:58.256Z,34.70
2018-06-05T19:01:25.951Z,34.50
2018-06-05T19:03:54.260Z,34.30
2018-06-05T19:06:21.997Z,33.80
2018-06-05T19:08:49.665Z,33.80
2018-06-05T19:11:17.323Z,33.40
2018-06-05T19:13:45.048Z,33.20
2018-06-05T19:16:12.790Z,33.10
2018-06-05T19:18:40.503Z,33.00
2018-06-05T19:21:08.191Z,32.50
2018-06-05T19:23:35.905Z,32.50
2018-06-05T19:26:03.598Z,32.50
2018-06-05T19:28:31.322Z,32.50
2018-06-05T19:30:59.147Z,32.40
2018-06-05T19:33:26.811Z,32.10
2018-06-05T19:35:54.540Z,32.10
2018-06-05T19:38:22.241Z,32.00
2018-06-05T19:40:49.927Z,31.90
2018-06-05T19:43:17.609Z,31.70
2018-06-05T19:45:45.323Z,31.70
2018-06-05T19:48:12.991Z,31.60
2018-06-05T19:50:42.195Z,31.30
2018-06-05T19:53:09.910Z,31.30
2018-06-05T19:55:37.645Z,31.20
2018-06-05T19:58:05.405Z,32.90
2018-06-05T20:00:33.097Z,31.10
2018-06-05T20:03:00.779Z,31.00
2018-06-05T20:05:28.515Z,30.90
2018-06-05T20:07:56.131Z,30.70
2018-06-05T20:10:23.798Z,30.60
2018-06-05T20:12:51.503Z,30.50
2018-06-05T20:15:19.192Z,30.50
2018-06-05T20:17:46.857Z,30.40
2018-06-05T20:20:14.530Z,30.40
2018-06-05T20:22:43.119Z,30.10
2018-06-05T20:25:10.848Z,29.80
2018-06-05T20:27:38.503Z,29.70
2018-06-05T20:30:06.400Z,29.40
2018-06-05T20:32:34.174Z,29.30
2018-06-05T20:35:01.879Z,29.20
2018-06-05T20:39:57.373Z,28.60
2018-06-05T20:42:25.111Z,28.10
2018-06-05T20:44:53.001Z,27.90
2018-06-05T20:47:20.962Z,27.80
2018-06-05T20:49:48.642Z,27.80
2018-06-05T20:52:16.518Z,27.60
2018-06-05T20:54:44.281Z,27.30
2018-06-05T20:57:12.251Z,27.30
2018-06-05T20:59:40.072Z,27.00
2018-06-05T21:02:07.879Z,26.90
2018-06-05T21:04:35.623Z,26.90
2018-06-05T21:07:03.433Z,26.70
2018-06-05T21:09:31.114Z,26.80
2018-06-05T21:11:58.790Z,26.70
2018-06-05T21:14:26.451Z,26.50
2018-06-05T21:16:54.274Z,26.50
2018-06-05T21:19:21.919Z,26.50
2018-06-05T21:21:49.609Z,26.30
2018-06-05T21:24:17.290Z,26.10
2018-06-05T21:26:44.954Z,26.20
2018-06-05T21:29:12.617Z,26.20
2018-06-05T21:31:40.278Z,26.20
2018-06-05T21:34:07.958Z,26.10
2018-06-05T21:36:36.623Z,26.10
2018-06-05T21:39:08.080Z,25.80
2018-06-05T21:41:35.749Z,26.00
2018-06-05T21:44:03.694Z,25.80
2018-06-05T21:46:31.354Z,25.80
2018-06-05T21:51:26.759Z,25.50
2018-06-05T21:53:54.422Z,25.40
2018-06-05T21:56:22.070Z,25.20
2018-06-05T21:58:49.766Z,25.10
2018-06-05T22:01:17.449Z,25.00
2018-06-05T22:03:45.128Z,24.80
2018-06-05T22:06:17.865Z,24.80
2018-06-05T22:08:45.543Z,24.90
2018-06-05T22:11:13.225Z,24.70
2018-06-05T22:13:40.918Z,24.90
2018-06-05T22:16:08.609Z,24.80
2018-06-05T22:18:36.265Z,24.60
2018-06-05T22:21:03.954Z,24.50
2018-06-05T22:23:31.660Z,24.40
2018-06-05T22:25:59.321Z,24.30
2018-06-05T22:28:26.969Z,24.30
2018-06-05T22:30:54.645Z,24.20
2018-06-05T22:33:22.326Z,24.10
2018-06-05T22:35:50.001Z,24.10
2018-06-05T22:38:17.669Z,24.10
2018-06-05T22:40:45.325Z,24.30
2018-06-05T22:43:13.844Z,24.10
2018-06-05T22:45:41.481Z,23.90
2018-06-05T22:48:09.187Z,23.90
2018-06-05T22:50:36.893Z,23.90
2018-06-05T22:53:04.743Z,23.70
2018-06-05T22:55:33.258Z,23.60
2018-06-05T22:58:00.943Z,23.60
2018-06-05T23:00:31.881Z,23.20
2018-06-05T23:02:59.577Z,23.20
2018-06-05T23:05:27.328Z,23.40
2018-06-05T23:07:55.011Z,23.30
2018-06-05T23:10:22.685Z,23.30
2018-06-05T23:15:18.164Z,23.10
2018-06-05T23:17:45.847Z,23.00
2018-06-05T23:20:13.506Z,23.10
2018-06-05T23:22:41.195Z,23.10
2018-06-05T23:25:08.899Z,23.00
2018-06-05T23:27:36.574Z,22.80
2018-06-05T23:30:04.351Z,22.80
2018-06-05T23:32:32.034Z,22.70
2018-06-05T23:34:59.706Z,22.70
2018-06-05T23:37:27.357Z,22.80
2018-06-05T23:39:54.997Z,22.70
2018-06-05T23:42:22.723Z,22.60
2018-06-05T23:44:50.369Z,22.60
2018-06-05T23:47:18.049Z,22.70
2018-06-05T23:49:45.721Z,22.70
2018-06-05T23:52:13.399Z,22.60
2018-06-05T23:54:41.084Z,22.50
2018-06-05T23:57:09.471Z,22.60
2018-06-05T23:59:37.133Z,22.60
